sensor_id;sensor_type;location;lat;lon;timestamp;P1;durP1;ratioP1;P2;durP2;ratioP2
6374;SDS011;35400;45.472;-122.822;2022-09-13T00:02:14;23.08;;;17.38;;
6374;SDS011;35400;45.472;-122.822;2022-09-13T00:04:41;21.02;;;16.90;;
6374;SDS011;35400;45.472;-122.822;2022-09-13T00:07:08;22.25;;;17.05;;
6374;SDS011;35400;45.472;-122.822;2022-09-13T00:09:35;22.52;;;17.70;;
6374;SDS011;35400;45.472;-122.822;2022-09-13T00:12:02;20.58;;;17.05;;
6374;SDS011;35400;45.472;-122.822;2022-09-13T00:14:29;19.63;;;16.95;;
6374;SDS011;35400;45.472;-122.822;2022-09-13T00:16:56;23.23;;;17.65;;
6374;SDS011;35400;45.472;-122.822;2022-09-13T00:19:23;23.35;;;16.17;;
6374;SDS011;35400;45.472;-122.822;2022-09-13T00:21:49;20.13;;;17.50;;
6374;SDS011;35400;45.472;-122.822;2022-09-13T00:24:16;27.25;;;17.00;;
6374;SDS011;35400;45.472;-122.822;2022-09-13T00:26:43;20.90;;;16.35;;
6374;SDS011;35400;45.472;-122.822;2022-09-13T00:29:10;18.50;;;16.35;;
6374;SDS011;35400;45.472;-122.822;2022-09-13T00:31:37;21.98;;;16.25;;
6374;SDS011;35400;45.472;-122.822;2022-09-13T00:34:04;20.02;;;16.58;;
6374;SDS011;35400;45.472;-122.822;2022-09-13T00:36:30;23.35;;;16.35;;
6374;SDS011;35400;45.472;-122.822;2022-09-13T00:38:58;21.90;;;17.88;;
6374;SDS011;35400;45.472;-122.822;2022-09-13T00:41:25;21.67;;;17.30;;
6374;SDS011;35400;45.472;-122.822;2022-09-13T00:43:54;19.85;;;17.10;;
6374;SDS011;35400;45.472;-122.822;2022-09-13T00:49:15;18.58;;;16.52;;
6374;SDS011;35400;45.472;-122.822;2022-09-13T00:51:45;19.50;;;16.50;;
6374;SDS011;35400;45.472;-122.822;2022-09-13T00:54:16;23.13;;;18.05;;
6374;SDS011;35400;45.472;-122.822;2022-09-13T00:56:47;23.73;;;17.50;;
6374;SDS011;35400;45.472;-122.822;2022-09-13T00:59:34;21.55;;;17.02;;
6374;SDS011;35400;45.472;-122.822;2022-09-13T01:02:05;17.67;;;15.75;;
6374;SDS011;35400;45.472;-122.822;2022-09-13T01:04:33;21.30;;;16.80;;
6374;SDS011;35400;45.472;-122.822;2022-09-13T01:07:03;22.88;;;17.77;;
6374;SDS011;35400;45.472;-122.822;2022-09-13T01:09:36;19.88;;;16.45;;
6374;SDS011;35400;45.472;-122.822;2022-09-13T01:12:55;22.30;;;16.50;;
6374;SDS011;35400;45.472;-122.822;2022-09-13T01:15:03;24.05;;;17.85;;
6374;SDS011;35400;45.472;-122.822;2022-09-13T01:17:30;25.67;;;18.15;;
6374;SDS011;35400;45.472;-122.822;2022-09-13T01:19:59;17.40;;;15.60;;
6374;SDS011;35400;45.472;-122.822;2022-09-13T01:22:38;19.38;;;17.13;;
6374;SDS011;35400;45.472;-122.822;2022-09-13T01:25:35;22.90;;;17.17;;
6374;SDS011;35400;45.472;-122.822;2022-09-13T01:28:26;24.73;;;17.60;;
6374;SDS011;35400;45.472;-122.822;2022-09-13T01:31:16;20.50;;;17.30;;
6374;SDS011;35400;45.472;-122.822;2022-09-13T01:33:48;20.23;;;16.52;;
6374;SDS011;35400;45.472;-122.822;2022-09-13T01:47:16;18.73;;;16.25;;
6374;SDS011;35400;45.472;-122.822;2022-09-13T01:50:08;20.05;;;16.85;;
6374;SDS011;35400;45.472;-122.822;2022-09-13T01:56:00;23.45;;;16.15;;
6374;SDS011;35400;45.472;-122.822;2022-09-13T01:58:41;21.67;;;15.98;;
6374;SDS011;35400;45.472;-122.822;2022-09-13T02:04:35;17.88;;;15.88;;
6374;SDS011;35400;45.472;-122.822;2022-09-13T02:07:16;20.10;;;16.55;;
6374;SDS011;35400;45.472;-122.822;2022-09-13T02:09:49;18.63;;;16.30;;
6374;SDS011;35400;45.472;-122.822;2022-09-13T02:12:24;21.63;;;15.82;;
6374;SDS011;35400;45.472;-122.822;2022-09-13T02:15:15;18.20;;;16.20;;
6374;SDS011;35400;45.472;-122.822;2022-09-13T02:18:07;19.17;;;16.80;;
6374;SDS011;35400;45.472;-122.822;2022-09-13T02:20:43;17.23;;;15.45;;
6374;SDS011;35400;45.472;-122.822;2022-09-13T02:23:19;25.50;;;18.42;;
6374;SDS011;35400;45.472;-122.822;2022-09-13T02:25:55;23.48;;;16.88;;
6374;SDS011;35400;45.472;-122.822;2022-09-13T02:28:28;21.75;;;16.63;;
6374;SDS011;35400;45.472;-122.822;2022-09-13T02:30:58;20.27;;;16.25;;
6374;SDS011;35400;45.472;-122.822;2022-09-13T02:33:34;19.35;;;16.30;;
6374;SDS011;35400;45.472;-122.822;2022-09-13T02:36:05;22.02;;;16.75;;
6374;SDS011;35400;45.472;-122.822;2022-09-13T02:41:42;17.83;;;15.90;;
6374;SDS011;35400;45.472;-122.822;2022-09-13T02:44:23;23.13;;;17.98;;
6374;SDS011;35400;45.472;-122.822;2022-09-13T02:50:10;20.20;;;18.02;;
6374;SDS011;35400;45.472;-122.822;2022-09-13T02:53:01;22.42;;;18.10;;
6374;SDS011;35400;45.472;-122.822;2022-09-13T02:55:58;25.73;;;17.67;;
6374;SDS011;35400;45.472;-122.822;2022-09-13T03:01:18;23.33;;;17.95;;
6374;SDS011;35400;45.472;-122.822;2022-09-13T03:03:46;23.27;;;17.90;;
6374;SDS011;35400;45.472;-122.822;2022-09-13T03:06:20;22.15;;;16.73;;
6374;SDS011;35400;45.472;-122.822;2022-09-13T03:08:52;20.30;;;16.35;;
6374;SDS011;35400;45.472;-122.822;2022-09-13T03:11:40;22.85;;;16.58;;
6374;SDS011;35400;45.472;-122.822;2022-09-13T03:17:41;20.20;;;14.95;;
6374;SDS011;35400;45.472;-122.822;2022-09-13T03:28:58;21.50;;;14.90;;
6374;SDS011;35400;45.472;-122.822;2022-09-13T03:31:44;18.30;;;14.15;;
6374;SDS011;35400;45.472;-122.822;2022-09-13T03:40:04;18.60;;;13.73;;
6374;SDS011;35400;45.472;-122.822;2022-09-13T03:42:42;18.75;;;13.77;;
6374;SDS011;35400;45.472;-122.822;2022-09-13T03:45:13;19.40;;;13.67;;
6374;SDS011;35400;45.472;-122.822;2022-09-13T03:47:44;18.05;;;13.30;;
6374;SDS011;35400;45.472;-122.822;2022-09-13T03:50:15;21.08;;;14.32;;
6374;SDS011;35400;45.472;-122.822;2022-09-13T03:52:44;20.40;;;13.57;;
6374;SDS011;35400;45.472;-122.822;2022-09-13T03:55:13;18.25;;;13.82;;
6374;SDS011;35400;45.472;-122.822;2022-09-13T03:57:39;17.90;;;13.97;;
6374;SDS011;35400;45.472;-122.822;2022-09-13T04:00:06;18.05;;;13.98;;
6374;SDS011;35400;45.472;-122.822;2022-09-13T04:02:37;17.00;;;13.10;;
6374;SDS011;35400;45.472;-122.822;2022-09-13T04:05:03;18.17;;;13.90;;
6374;SDS011;35400;45.472;-122.822;2022-09-13T04:07:31;15.38;;;13.45;;
6374;SDS011;35400;45.472;-122.822;2022-09-13T04:09:58;19.00;;;13.80;;
6374;SDS011;35400;45.472;-122.822;2022-09-13T04:12:25;18.65;;;13.57;;
6374;SDS011;35400;45.472;-122.822;2022-09-13T04:14:56;16.85;;;12.73;;
6374;SDS011;35400;45.472;-122.822;2022-09-13T04:17:23;19.45;;;13.57;;
6374;SDS011;35400;45.472;-122.822;2022-09-13T04:19:49;17.70;;;13.98;;
6374;SDS011;35400;45.472;-122.822;2022-09-13T04:22:16;18.25;;;12.48;;
6374;SDS011;35400;45.472;-122.822;2022-09-13T04:24:43;19.15;;;12.32;;
6374;SDS011;35400;45.472;-122.822;2022-09-13T04:27:10;17.08;;;13.05;;
6374;SDS011;35400;45.472;-122.822;2022-09-13T04:29:37;18.40;;;12.40;;
6374;SDS011;35400;45.472;-122.822;2022-09-13T04:32:04;16.80;;;12.52;;
6374;SDS011;35400;45.472;-122.822;2022-09-13T04:34:31;15.23;;;12.00;;
6374;SDS011;35400;45.472;-122.822;2022-09-13T04:36:58;18.70;;;13.05;;
6374;SDS011;35400;45.472;-122.822;2022-09-13T04:39:25;17.92;;;12.05;;
6374;SDS011;35400;45.472;-122.822;2022-09-13T04:41:52;19.52;;;12.98;;
6374;SDS011;35400;45.472;-122.822;2022-09-13T04:44:20;17.35;;;12.90;;
6374;SDS011;35400;45.472;-122.822;2022-09-13T04:46:48;15.55;;;12.30;;
6374;SDS011;35400;45.472;-122.822;2022-09-13T04:49:16;20.52;;;13.85;;
6374;SDS011;35400;45.472;-122.822;2022-09-13T04:51:44;17.17;;;12.87;;
6374;SDS011;35400;45.472;-122.822;2022-09-13T04:54:11;17.80;;;11.33;;
6374;SDS011;35400;45.472;-122.822;2022-09-13T04:56:39;12.85;;;9.20;;
6374;SDS011;35400;45.472;-122.822;2022-09-13T04:59:06;14.48;;;9.48;;
6374;SDS011;35400;45.472;-122.822;2022-09-13T05:01:35;12.67;;;8.90;;
6374;SDS011;35400;45.472;-122.822;2022-09-13T05:04:02;10.63;;;8.13;;
6374;SDS011;35400;45.472;-122.822;2022-09-13T05:06:30;13.30;;;8.23;;
6374;SDS011;35400;45.472;-122.822;2022-09-13T05:08:57;11.27;;;8.80;;
6374;SDS011;35400;45.472;-122.822;2022-09-13T05:11:25;11.77;;;8.87;;
6374;SDS011;35400;45.472;-122.822;2022-09-13T05:13:54;12.87;;;8.17;;
6374;SDS011;35400;45.472;-122.822;2022-09-13T05:16:23;11.97;;;7.83;;
6374;SDS011;35400;45.472;-122.822;2022-09-13T05:18:51;11.27;;;8.17;;
6374;SDS011;35400;45.472;-122.822;2022-09-13T05:21:18;13.10;;;8.47;;
6374;SDS011;35400;45.472;-122.822;2022-09-13T05:23:50;11.37;;;7.90;;
6374;SDS011;35400;45.472;-122.822;2022-09-13T05:26:19;10.90;;;7.77;;
6374;SDS011;35400;45.472;-122.822;2022-09-13T05:28:47;9.53;;;7.10;;
6374;SDS011;35400;45.472;-122.822;2022-09-13T05:31:21;10.17;;;7.10;;
6374;SDS011;35400;45.472;-122.822;2022-09-13T05:33:58;10.57;;;7.07;;
6374;SDS011;35400;45.472;-122.822;2022-09-13T05:36:26;12.23;;;6.80;;
6374;SDS011;35400;45.472;-122.822;2022-09-13T05:38:54;14.90;;;7.23;;
6374;SDS011;35400;45.472;-122.822;2022-09-13T05:41:21;10.57;;;6.73;;
6374;SDS011;35400;45.472;-122.822;2022-09-13T05:43:48;10.93;;;6.50;;
6374;SDS011;35400;45.472;-122.822;2022-09-13T05:46:16;11.37;;;7.40;;
6374;SDS011;35400;45.472;-122.822;2022-09-13T05:48:44;10.60;;;6.97;;
6374;SDS011;35400;45.472;-122.822;2022-09-13T05:51:15;13.47;;;6.80;;
6374;SDS011;35400;45.472;-122.822;2022-09-13T05:53:45;13.33;;;7.67;;
6374;SDS011;35400;45.472;-122.822;2022-09-13T05:56:14;11.50;;;7.07;;
6374;SDS011;35400;45.472;-122.822;2022-09-13T05:58:46;10.33;;;6.63;;
6374;SDS011;35400;45.472;-122.822;2022-09-13T06:01:25;13.20;;;7.10;;
6374;SDS011;35400;45.472;-122.822;2022-09-13T06:03:54;9.20;;;6.30;;
6374;SDS011;35400;45.472;-122.822;2022-09-13T06:06:22;11.33;;;6.93;;
6374;SDS011;35400;45.472;-122.822;2022-09-13T06:08:53;7.43;;;6.03;;
6374;SDS011;35400;45.472;-122.822;2022-09-13T06:11:22;13.40;;;7.37;;
6374;SDS011;35400;45.472;-122.822;2022-09-13T06:13:50;11.60;;;6.60;;
6374;SDS011;35400;45.472;-122.822;2022-09-13T06:16:19;10.70;;;6.63;;
6374;SDS011;35400;45.472;-122.822;2022-09-13T06:18:46;11.87;;;6.57;;
6374;SDS011;35400;45.472;-122.822;2022-09-13T06:21:17;10.53;;;6.63;;
6374;SDS011;35400;45.472;-122.822;2022-09-13T06:23:47;10.17;;;6.97;;
6374;SDS011;35400;45.472;-122.822;2022-09-13T06:26:18;13.73;;;6.83;;
6374;SDS011;35400;45.472;-122.822;2022-09-13T06:28:46;11.57;;;5.93;;
6374;SDS011;35400;45.472;-122.822;2022-09-13T06:31:15;10.40;;;6.33;;
6374;SDS011;35400;45.472;-122.822;2022-09-13T06:33:43;12.87;;;6.37;;
6374;SDS011;35400;45.472;-122.822;2022-09-13T06:36:14;11.17;;;6.00;;
6374;SDS011;35400;45.472;-122.822;2022-09-13T06:38:43;11.30;;;6.30;;
6374;SDS011;35400;45.472;-122.822;2022-09-13T06:41:17;11.73;;;6.37;;
6374;SDS011;35400;45.472;-122.822;2022-09-13T06:43:46;9.87;;;5.90;;
6374;SDS011;35400;45.472;-122.822;2022-09-13T06:46:20;8.83;;;6.40;;
6374;SDS011;35400;45.472;-122.822;2022-09-13T06:48:47;12.13;;;6.50;;
6374;SDS011;35400;45.472;-122.822;2022-09-13T06:51:15;12.37;;;6.60;;
6374;SDS011;35400;45.472;-122.822;2022-09-13T06:53:44;11.70;;;6.73;;
6374;SDS011;35400;45.472;-122.822;2022-09-13T06:56:20;11.73;;;6.57;;
6374;SDS011;35400;45.472;-122.822;2022-09-13T06:58:50;13.53;;;6.40;;
6374;SDS011;35400;45.472;-122.822;2022-09-13T07:03:51;9.50;;;6.17;;
6374;SDS011;35400;45.472;-122.822;2022-09-13T07:08:49;9.17;;;5.80;;
6374;SDS011;35400;45.472;-122.822;2022-09-13T07:11:17;13.00;;;6.47;;
6374;SDS011;35400;45.472;-122.822;2022-09-13T07:13:49;12.50;;;6.60;;
6374;SDS011;35400;45.472;-122.822;2022-09-13T07:16:17;9.10;;;6.00;;
6374;SDS011;35400;45.472;-122.822;2022-09-13T07:18:49;10.63;;;6.47;;
6374;SDS011;35400;45.472;-122.822;2022-09-13T07:21:18;11.13;;;6.90;;
6374;SDS011;35400;45.472;-122.822;2022-09-13T07:23:45;8.70;;;5.70;;
6374;SDS011;35400;45.472;-122.822;2022-09-13T07:26:12;12.23;;;6.33;;
6374;SDS011;35400;45.472;-122.822;2022-09-13T07:28:40;16.40;;;6.60;;
6374;SDS011;35400;45.472;-122.822;2022-09-13T07:31:10;9.73;;;6.43;;
6374;SDS011;35400;45.472;-122.822;2022-09-13T07:33:42;12.80;;;6.20;;
6374;SDS011;35400;45.472;-122.822;2022-09-13T07:36:10;12.00;;;5.93;;
6374;SDS011;35400;45.472;-122.822;2022-09-13T07:38:39;12.27;;;6.37;;
6374;SDS011;35400;45.472;-122.822;2022-09-13T07:41:11;10.00;;;6.10;;
6374;SDS011;35400;45.472;-122.822;2022-09-13T07:43:38;11.27;;;5.90;;
6374;SDS011;35400;45.472;-122.822;2022-09-13T07:46:06;8.90;;;5.67;;
6374;SDS011;35400;45.472;-122.822;2022-09-13T07:48:42;9.80;;;5.40;;
6374;SDS011;35400;45.472;-122.822;2022-09-13T07:51:11;10.30;;;5.10;;
6374;SDS011;35400;45.472;-122.822;2022-09-13T07:53:40;7.73;;;5.73;;
6374;SDS011;35400;45.472;-122.822;2022-09-13T07:58:36;9.50;;;5.27;;
6374;SDS011;35400;45.472;-122.822;2022-09-13T08:01:09;9.00;;;5.30;;
6374;SDS011;35400;45.472;-122.822;2022-09-13T08:04:09;9.63;;;6.27;;
6374;SDS011;35400;45.472;-122.822;2022-09-13T08:06:38;12.40;;;5.87;;
6374;SDS011;35400;45.472;-122.822;2022-09-13T08:09:08;12.53;;;5.70;;
6374;SDS011;35400;45.472;-122.822;2022-09-13T08:11:37;9.23;;;6.03;;
6374;SDS011;35400;45.472;-122.822;2022-09-13T08:14:06;7.50;;;5.40;;
6374;SDS011;35400;45.472;-122.822;2022-09-13T08:16:35;11.97;;;4.97;;
6374;SDS011;35400;45.472;-122.822;2022-09-13T08:19:04;10.90;;;5.60;;
6374;SDS011;35400;45.472;-122.822;2022-09-13T08:21:32;9.53;;;5.30;;
6374;SDS011;35400;45.472;-122.822;2022-09-13T08:24:01;10.30;;;5.40;;
6374;SDS011;35400;45.472;-122.822;2022-09-13T08:26:29;9.73;;;5.27;;
6374;SDS011;35400;45.472;-122.822;2022-09-13T08:28:59;10.63;;;5.53;;
6374;SDS011;35400;45.472;-122.822;2022-09-13T08:31:27;7.23;;;4.40;;
6374;SDS011;35400;45.472;-122.822;2022-09-13T08:33:54;9.60;;;5.03;;
6374;SDS011;35400;45.472;-122.822;2022-09-13T08:36:22;9.07;;;6.23;;
6374;SDS011;35400;45.472;-122.822;2022-09-13T08:38:54;9.97;;;5.20;;
6374;SDS011;35400;45.472;-122.822;2022-09-13T08:44:14;10.60;;;4.93;;
6374;SDS011;35400;45.472;-122.822;2022-09-13T08:46:46;11.60;;;5.40;;
6374;SDS011;35400;45.472;-122.822;2022-09-13T08:49:15;8.17;;;5.23;;
6374;SDS011;35400;45.472;-122.822;2022-09-13T08:51:47;11.07;;;5.70;;
6374;SDS011;35400;45.472;-122.822;2022-09-13T08:54:17;9.23;;;5.80;;
6374;SDS011;35400;45.472;-122.822;2022-09-13T08:56:50;8.03;;;5.50;;
6374;SDS011;35400;45.472;-122.822;2022-09-13T09:03:29;8.60;;;5.30;;
6374;SDS011;35400;45.472;-122.822;2022-09-13T09:05:32;10.53;;;5.20;;
6374;SDS011;35400;45.472;-122.822;2022-09-13T09:11:06;12.60;;;6.00;;
6374;SDS011;35400;45.472;-122.822;2022-09-13T09:16:52;10.63;;;5.83;;
6374;SDS011;35400;45.472;-122.822;2022-09-13T09:19:28;9.80;;;5.83;;
6374;SDS011;35400;45.472;-122.822;2022-09-13T09:22:08;11.07;;;5.67;;
6374;SDS011;35400;45.472;-122.822;2022-09-13T09:24:49;11.83;;;5.47;;
6374;SDS011;35400;45.472;-122.822;2022-09-13T09:27:19;10.60;;;5.83;;
6374;SDS011;35400;45.472;-122.822;2022-09-13T09:29:47;13.53;;;5.87;;
6374;SDS011;35400;45.472;-122.822;2022-09-13T09:40:40;11.10;;;6.57;;
6374;SDS011;35400;45.472;-122.822;2022-09-13T09:43:16;11.47;;;6.50;;
6374;SDS011;35400;45.472;-122.822;2022-09-13T09:45:55;9.00;;;6.20;;
6374;SDS011;35400;45.472;-122.822;2022-09-13T09:48:25;13.50;;;7.40;;
6374;SDS011;35400;45.472;-122.822;2022-09-13T09:50:56;9.80;;;6.20;;
6374;SDS011;35400;45.472;-122.822;2022-09-13T09:53:25;12.03;;;6.27;;
6374;SDS011;35400;45.472;-122.822;2022-09-13T10:01:40;14.27;;;7.20;;
6374;SDS011;35400;45.472;-122.822;2022-09-13T10:06:38;12.13;;;6.73;;
6374;SDS011;35400;45.472;-122.822;2022-09-13T10:09:16;13.63;;;7.13;;
6374;SDS011;35400;45.472;-122.822;2022-09-13T10:19:31;14.23;;;7.00;;
6374;SDS011;35400;45.472;-122.822;2022-09-13T10:21:59;11.53;;;6.83;;
6374;SDS011;35400;45.472;-122.822;2022-09-13T10:24:31;10.47;;;7.20;;
6374;SDS011;35400;45.472;-122.822;2022-09-13T10:26:58;11.23;;;6.43;;
6374;SDS011;35400;45.472;-122.822;2022-09-13T10:29:25;13.57;;;7.20;;
6374;SDS011;35400;45.472;-122.822;2022-09-13T10:31:53;8.80;;;6.27;;
6374;SDS011;35400;45.472;-122.822;2022-09-13T10:34:27;11.93;;;6.77;;
6374;SDS011;35400;45.472;-122.822;2022-09-13T10:36:58;11.30;;;6.77;;
6374;SDS011;35400;45.472;-122.822;2022-09-13T10:39:25;10.03;;;6.80;;
6374;SDS011;35400;45.472;-122.822;2022-09-13T10:41:59;12.50;;;6.97;;
6374;SDS011;35400;45.472;-122.822;2022-09-13T10:47:33;14.33;;;6.70;;
6374;SDS011;35400;45.472;-122.822;2022-09-13T10:50:20;11.10;;;6.63;;
6374;SDS011;35400;45.472;-122.822;2022-09-13T10:52:49;9.00;;;6.17;;
6374;SDS011;35400;45.472;-122.822;2022-09-13T10:57:46;13.60;;;6.90;;
6374;SDS011;35400;45.472;-122.822;2022-09-13T11:00:16;9.63;;;6.73;;
6374;SDS011;35400;45.472;-122.822;2022-09-13T11:08:19;12.07;;;6.57;;
6374;SDS011;35400;45.472;-122.822;2022-09-13T11:13:44;11.40;;;6.60;;
6374;SDS011;35400;45.472;-122.822;2022-09-13T11:16:46;13.57;;;6.87;;
6374;SDS011;35400;45.472;-122.822;2022-09-13T11:19:45;10.93;;;7.00;;
6374;SDS011;35400;45.472;-122.822;2022-09-13T11:25:06;11.30;;;6.63;;
6374;SDS011;35400;45.472;-122.822;2022-09-13T11:36:09;12.40;;;6.57;;
6374;SDS011;35400;45.472;-122.822;2022-09-13T11:39:10;11.40;;;6.97;;
6374;SDS011;35400;45.472;-122.822;2022-09-13T11:41:54;9.77;;;6.60;;
6374;SDS011;35400;45.472;-122.822;2022-09-13T11:45:17;13.13;;;7.23;;
6374;SDS011;35400;45.472;-122.822;2022-09-13T11:53:28;12.50;;;6.73;;
6374;SDS011;35400;45.472;-122.822;2022-09-13T11:56:20;9.33;;;6.03;;
6374;SDS011;35400;45.472;-122.822;2022-09-13T11:59:15;10.43;;;7.10;;
6374;SDS011;35400;45.472;-122.822;2022-09-13T12:01:56;10.40;;;6.50;;
6374;SDS011;35400;45.472;-122.822;2022-09-13T12:04:36;11.90;;;6.70;;
6374;SDS011;35400;45.472;-122.822;2022-09-13T12:10:27;11.07;;;6.97;;
6374;SDS011;35400;45.472;-122.822;2022-09-13T12:12:58;9.80;;;7.00;;
6374;SDS011;35400;45.472;-122.822;2022-09-13T12:18:09;12.23;;;6.23;;
6374;SDS011;35400;45.472;-122.822;2022-09-13T12:21:03;10.53;;;6.93;;
6374;SDS011;35400;45.472;-122.822;2022-09-13T12:23:36;8.73;;;6.10;;
6374;SDS011;35400;45.472;-122.822;2022-09-13T12:26:19;9.73;;;6.43;;
6374;SDS011;35400;45.472;-122.822;2022-09-13T12:29:19;8.60;;;6.10;;
6374;SDS011;35400;45.472;-122.822;2022-09-13T12:31:54;9.20;;;6.53;;
6374;SDS011;35400;45.472;-122.822;2022-09-13T12:34:31;8.63;;;6.97;;
6374;SDS011;35400;45.472;-122.822;2022-09-13T12:37:12;12.70;;;7.07;;
6374;SDS011;35400;45.472;-122.822;2022-09-13T12:39:56;10.93;;;6.83;;
6374;SDS011;35400;45.472;-122.822;2022-09-13T12:48:21;8.20;;;6.40;;
6374;SDS011;35400;45.472;-122.822;2022-09-13T12:53:43;10.03;;;5.87;;
6374;SDS011;35400;45.472;-122.822;2022-09-13T12:59:18;10.27;;;6.53;;
6374;SDS011;35400;45.472;-122.822;2022-09-13T13:01:53;8.17;;;6.77;;
6374;SDS011;35400;45.472;-122.822;2022-09-13T13:04:25;11.30;;;6.63;;
6374;SDS011;35400;45.472;-122.822;2022-09-13T13:09:46;9.33;;;6.93;;
6374;SDS011;35400;45.472;-122.822;2022-09-13T13:14:54;10.97;;;6.23;;
6374;SDS011;35400;45.472;-122.822;2022-09-13T13:26:05;10.47;;;6.83;;
6374;SDS011;35400;45.472;-122.822;2022-09-13T13:39:08;10.30;;;6.43;;
6374;SDS011;35400;45.472;-122.822;2022-09-13T13:46:48;8.93;;;6.50;;
6374;SDS011;35400;45.472;-122.822;2022-09-13T14:00:13;12.03;;;6.67;;
6374;SDS011;35400;45.472;-122.822;2022-09-13T14:19:26;11.50;;;6.43;;
6374;SDS011;35400;45.472;-122.822;2022-09-13T14:24:36;11.87;;;6.47;;
6374;SDS011;35400;45.472;-122.822;2022-09-13T14:27:09;11.27;;;5.63;;
6374;SDS011;35400;45.472;-122.822;2022-09-13T14:29:45;8.33;;;5.97;;
6374;SDS011;35400;45.472;-122.822;2022-09-13T14:32:17;16.23;;;6.63;;
6374;SDS011;35400;45.472;-122.822;2022-09-13T14:35:00;9.53;;;7.27;;
6374;SDS011;35400;45.472;-122.822;2022-09-13T14:37:30;14.07;;;6.80;;
6374;SDS011;35400;45.472;-122.822;2022-09-13T14:40:10;8.53;;;6.47;;
6374;SDS011;35400;45.472;-122.822;2022-09-13T14:42:51;11.00;;;6.43;;
6374;SDS011;35400;45.472;-122.822;2022-09-13T14:45:32;8.03;;;5.70;;
6374;SDS011;35400;45.472;-122.822;2022-09-13T14:48:03;9.73;;;6.77;;
6374;SDS011;35400;45.472;-122.822;2022-09-13T14:50:51;13.53;;;6.90;;
6374;SDS011;35400;45.472;-122.822;2022-09-13T14:53:23;12.67;;;6.90;;
6374;SDS011;35400;45.472;-122.822;2022-09-13T14:55:56;13.73;;;6.83;;
6374;SDS011;35400;45.472;-122.822;2022-09-13T14:58:28;8.63;;;5.73;;
6374;SDS011;35400;45.472;-122.822;2022-09-13T15:01:10;14.50;;;7.60;;
6374;SDS011;35400;45.472;-122.822;2022-09-13T15:03:44;10.63;;;6.53;;
6374;SDS011;35400;45.472;-122.822;2022-09-13T15:06:23;8.90;;;6.57;;
6374;SDS011;35400;45.472;-122.822;2022-09-13T15:08:52;8.60;;;6.33;;
6374;SDS011;35400;45.472;-122.822;2022-09-13T15:16:51;11.00;;;6.47;;
6374;SDS011;35400;45.472;-122.822;2022-09-13T15:24:50;12.83;;;6.90;;
6374;SDS011;35400;45.472;-122.822;2022-09-13T15:27:25;14.00;;;6.90;;
6374;SDS011;35400;45.472;-122.822;2022-09-13T15:30:03;12.00;;;6.50;;
6374;SDS011;35400;45.472;-122.822;2022-09-13T15:32:42;11.47;;;6.77;;
6374;SDS011;35400;45.472;-122.822;2022-09-13T15:35:17;13.93;;;7.07;;
6374;SDS011;35400;45.472;-122.822;2022-09-13T15:40:41;14.63;;;6.60;;
6374;SDS011;35400;45.472;-122.822;2022-09-13T15:43:13;11.70;;;6.97;;
6374;SDS011;35400;45.472;-122.822;2022-09-13T15:45:40;10.97;;;6.50;;
6374;SDS011;35400;45.472;-122.822;2022-09-13T15:48:06;10.73;;;6.40;;
6374;SDS011;35400;45.472;-122.822;2022-09-13T15:50:42;11.17;;;6.57;;
6374;SDS011;35400;45.472;-122.822;2022-09-13T15:53:13;11.13;;;6.00;;
6374;SDS011;35400;45.472;-122.822;2022-09-13T15:55:40;13.60;;;6.80;;
6374;SDS011;35400;45.472;-122.822;2022-09-13T15:58:08;13.00;;;6.80;;
6374;SDS011;35400;45.472;-122.822;2022-09-13T16:00:35;11.00;;;6.50;;
6374;SDS011;35400;45.472;-122.822;2022-09-13T16:03:02;8.63;;;6.23;;
6374;SDS011;35400;45.472;-122.822;2022-09-13T16:05:28;14.40;;;6.20;;
6374;SDS011;35400;45.472;-122.822;2022-09-13T16:07:55;11.07;;;6.63;;
6374;SDS011;35400;45.472;-122.822;2022-09-13T16:10:23;10.33;;;7.10;;
6374;SDS011;35400;45.472;-122.822;2022-09-13T16:12:50;11.77;;;6.23;;
6374;SDS011;35400;45.472;-122.822;2022-09-13T16:15:17;8.77;;;6.23;;
6374;SDS011;35400;45.472;-122.822;2022-09-13T16:17:43;14.07;;;6.97;;
6374;SDS011;35400;45.472;-122.822;2022-09-13T16:20:12;11.67;;;6.40;;
6374;SDS011;35400;45.472;-122.822;2022-09-13T16:22:39;11.67;;;6.93;;
6374;SDS011;35400;45.472;-122.822;2022-09-13T16:25:08;11.47;;;6.43;;
6374;SDS011;35400;45.472;-122.822;2022-09-13T16:27:37;12.30;;;6.70;;
6374;SDS011;35400;45.472;-122.822;2022-09-13T16:30:05;8.17;;;6.50;;
6374;SDS011;35400;45.472;-122.822;2022-09-13T16:32:32;13.40;;;6.83;;
6374;SDS011;35400;45.472;-122.822;2022-09-13T16:34:59;10.67;;;6.50;;
6374;SDS011;35400;45.472;-122.822;2022-09-13T16:37:26;10.23;;;6.30;;
6374;SDS011;35400;45.472;-122.822;2022-09-13T16:39:56;12.13;;;6.63;;
6374;SDS011;35400;45.472;-122.822;2022-09-13T16:42:23;9.97;;;7.10;;
6374;SDS011;35400;45.472;-122.822;2022-09-13T16:44:50;9.93;;;6.60;;
6374;SDS011;35400;45.472;-122.822;2022-09-13T16:47:16;10.07;;;6.17;;
6374;SDS011;35400;45.472;-122.822;2022-09-13T16:49:43;8.13;;;6.60;;
6374;SDS011;35400;45.472;-122.822;2022-09-13T16:52:10;11.00;;;6.63;;
6374;SDS011;35400;45.472;-122.822;2022-09-13T16:54:37;11.33;;;6.63;;
6374;SDS011;35400;45.472;-122.822;2022-09-13T16:57:05;12.40;;;6.70;;
6374;SDS011;35400;45.472;-122.822;2022-09-13T16:59:34;12.97;;;6.73;;
6374;SDS011;35400;45.472;-122.822;2022-09-13T17:02:01;11.60;;;6.17;;
6374;SDS011;35400;45.472;-122.822;2022-09-13T17:04:28;8.93;;;5.87;;
6374;SDS011;35400;45.472;-122.822;2022-09-13T17:06:55;11.97;;;6.97;;
6374;SDS011;35400;45.472;-122.822;2022-09-13T17:09:22;14.27;;;7.40;;
6374;SDS011;35400;45.472;-122.822;2022-09-13T17:11:52;10.30;;;6.53;;
6374;SDS011;35400;45.472;-122.822;2022-09-13T17:14:19;11.10;;;6.80;;
6374;SDS011;35400;45.472;-122.822;2022-09-13T17:16:47;12.27;;;6.40;;
6374;SDS011;35400;45.472;-122.822;2022-09-13T17:19:18;11.43;;;6.17;;
6374;SDS011;35400;45.472;-122.822;2022-09-13T17:21:46;12.93;;;7.23;;
6374;SDS011;35400;45.472;-122.822;2022-09-13T17:24:13;13.37;;;7.40;;
6374;SDS011;35400;45.472;-122.822;2022-09-13T17:26:41;9.27;;;6.23;;
6374;SDS011;35400;45.472;-122.822;2022-09-13T17:29:12;15.30;;;7.17;;
6374;SDS011;35400;45.472;-122.822;2022-09-13T17:31:39;14.07;;;6.93;;
6374;SDS011;35400;45.472;-122.822;2022-09-13T17:34:08;11.10;;;6.87;;
6374;SDS011;35400;45.472;-122.822;2022-09-13T17:36:37;17.70;;;8.27;;
6374;SDS011;35400;45.472;-122.822;2022-09-13T17:39:04;9.87;;;6.47;;
6374;SDS011;35400;45.472;-122.822;2022-09-13T17:41:31;12.00;;;6.63;;
6374;SDS011;35400;45.472;-122.822;2022-09-13T17:43:58;284.23;;;27.17;;
6374;SDS011;35400;45.472;-122.822;2022-09-13T17:46:26;18.42;;;7.25;;
6374;SDS011;35400;45.472;-122.822;2022-09-13T17:48:55;35.70;;;10.20;;
6374;SDS011;35400;45.472;-122.822;2022-09-13T17:51:24;18.57;;;7.07;;
6374;SDS011;35400;45.472;-122.822;2022-09-13T17:53:54;11.15;;;6.20;;
6374;SDS011;35400;45.472;-122.822;2022-09-13T17:56:26;11.03;;;6.20;;
6374;SDS011;35400;45.472;-122.822;2022-09-13T17:58:55;14.02;;;6.55;;
6374;SDS011;35400;45.472;-122.822;2022-09-13T18:01:28;9.70;;;5.88;;
6374;SDS011;35400;45.472;-122.822;2022-09-13T18:03:54;8.05;;;5.82;;
6374;SDS011;35400;45.472;-122.822;2022-09-13T18:06:21;8.10;;;5.90;;
6374;SDS011;35400;45.472;-122.822;2022-09-13T18:08:50;9.85;;;4.38;;
6374;SDS011;35400;45.472;-122.822;2022-09-13T18:11:19;9.95;;;5.00;;